createdAt,value
2018-09-10T19:58:03.356Z,99114.47
2018-09-10T20:00:30.857Z,99113.25
2018-09-10T20:02:58.406Z,99117.58
2018-09-10T20:05:25.958Z,99118.54
2018-09-10T20:07:53.658Z,99120.37
2018-09-10T20:10:21.205Z,99126.59
2018-09-10T20:12:48.743Z,99123.50
2018-09-10T20:15:16.337Z,99122.56
2018-09-10T20:17:43.974Z,99124.77
2018-09-10T20:20:11.574Z,99133.68
2018-09-10T20:22:39.069Z,99129.66
2018-09-10T20:25:06.897Z,99133.61
2018-09-10T20:27:34.509Z,99136.73
2018-09-10T20:30:02.164Z,99141.66
2018-09-10T20:32:29.917Z,99147.03
2018-09-10T20:34:57.439Z,99145.20
2018-09-10T20:37:25.796Z,99150.57
2018-09-10T20:39:53.271Z,99155.08
2018-09-10T20:42:20.847Z,99162.17
2018-09-10T20:44:48.408Z,99170.70
2018-09-10T20:47:15.919Z,99192.19
2018-09-10T20:49:44.124Z,99176.08
2018-09-10T20:52:11.698Z,99184.13
2018-09-10T20:54:39.254Z,99177.42
2018-09-10T20:57:06.982Z,99180.11
2018-09-10T20:59:34.702Z,99188.16
2018-09-10T21:02:03.056Z,99192.19
2018-09-10T21:04:30.617Z,99192.19
2018-09-10T21:06:58.159Z,99195.66
2018-09-10T21:09:25.728Z,99194.31
2018-09-10T21:11:53.230Z,99190.66
2018-09-10T21:14:20.867Z,99181.34
2018-09-10T21:16:48.459Z,99186.64
2018-09-10T21:19:16.005Z,99176.38
2018-09-10T21:21:44.256Z,99177.23
2018-09-10T21:24:11.842Z,99186.64
2018-09-10T21:26:39.656Z,99189.70
2018-09-10T21:29:07.240Z,99193.66
2018-09-10T21:31:34.754Z,99194.99
2018-09-10T21:34:02.400Z,99190.48
2018-09-10T21:36:29.943Z,99191.27
2018-09-10T21:38:57.512Z,99186.27
2018-09-10T21:41:25.123Z,99191.64
2018-09-10T21:43:52.932Z,99194.81
2018-09-10T21:46:20.635Z,99194.26
2018-09-10T21:48:48.233Z,99190.23
2018-09-10T21:51:15.790Z,99190.71
2018-09-10T21:53:44.568Z,99200.48
2018-09-10T21:56:12.155Z,99194.18
2018-09-10T21:58:40.127Z,99202.23
2018-09-10T22:01:08.426Z,99198.66
2018-09-10T22:03:36.212Z,99194.56
2018-09-10T22:06:03.737Z,99197.24
2018-09-10T22:08:34.490Z,99198.20
2018-09-10T22:11:02.004Z,99201.75
2018-09-10T22:13:29.598Z,99210.59
2018-09-10T22:15:57.104Z,99201.64
2018-09-10T22:18:24.625Z,99205.23
2018-09-10T22:20:52.170Z,99198.03
2018-09-10T22:23:19.676Z,99197.55
2018-09-10T22:25:47.202Z,99201.50
2018-09-10T22:28:14.721Z,99195.72
2018-09-10T22:30:42.272Z,99196.98
2018-09-10T22:33:09.967Z,99197.84
2018-09-10T22:35:37.572Z,99189.79
2018-09-10T22:38:05.893Z,99184.34
2018-09-10T22:40:33.520Z,99192.30
2018-09-10T22:43:02.022Z,99187.89
2018-09-10T22:45:29.560Z,99186.92
2018-09-10T22:47:57.323Z,99190.09
2018-09-10T22:50:24.986Z,99182.89
2018-09-10T22:52:52.618Z,99186.92
2018-09-10T22:55:20.102Z,99186.92
2018-09-10T22:57:47.571Z,99182.03
2018-09-10T23:00:15.061Z,99178.86
2018-09-10T23:02:42.562Z,99178.00
2018-09-10T23:05:10.109Z,99181.55
2018-09-10T23:07:37.764Z,99179.34
2018-09-10T23:10:05.739Z,99182.89
2018-09-10T23:12:33.271Z,99187.89
2018-09-10T23:15:00.785Z,99189.23
2018-09-10T23:17:28.299Z,99189.23
2018-09-10T23:19:55.843Z,99190.16
2018-09-10T23:22:23.476Z,99201.80
2018-09-10T23:24:50.967Z,99200.45
2018-09-10T23:27:18.600Z,99199.97
2018-09-10T23:29:46.114Z,99204.00
2018-09-10T23:32:13.646Z,99216.95
2018-09-10T23:34:41.193Z,99221.45
2018-09-10T23:37:08.722Z,99219.25
2018-09-10T23:39:36.265Z,99222.39
2018-09-10T23:42:03.936Z,99220.59
2018-09-10T23:44:31.584Z,99221.05
2018-09-10T23:46:59.090Z,99218.84
2018-09-10T23:49:26.716Z,99224.22
2018-09-10T23:51:54.285Z,99219.51
2018-09-10T23:54:21.826Z,99220.67
2018-09-10T23:56:49.315Z,99225.19
2018-09-10T23:59:16.842Z,99224.33
